createdAt,value
2019-01-10T00:00:14.051Z,-1.20
2019-01-10T00:02:42.599Z,-1.30
2019-01-10T00:05:11.850Z,-1.30
2019-01-10T00:07:40.387Z,-1.30
2019-01-10T00:10:11.345Z,-1.30
2019-01-10T00:12:39.884Z,-1.30
2019-01-10T00:15:17.367Z,-1.30
2019-01-10T00:17:45.914Z,-1.20
2019-01-10T00:20:15.859Z,-1.20
2019-01-10T00:22:44.603Z,-1.30
2019-01-10T00:25:14.252Z,-1.20
2019-01-10T00:27:42.796Z,-1.30
2019-01-10T00:30:14.311Z,-1.20
2019-01-10T00:32:42.785Z,-1.30
2019-01-10T00:35:11.825Z,-1.30
2019-01-10T00:37:40.238Z,-1.20
2019-01-10T00:40:11.297Z,-1.20
2019-01-10T00:42:48.808Z,-1.20
2019-01-10T00:45:13.416Z,-1.30
2019-01-10T00:47:42.129Z,-1.30
2019-01-10T00:50:13.817Z,-1.30
2019-01-10T00:52:42.617Z,-1.30
2019-01-10T00:55:11.127Z,-1.20
2019-01-10T00:57:39.558Z,-1.20
2019-01-10T01:00:11.031Z,-1.20
2019-01-10T01:02:39.460Z,-1.20
2019-01-10T01:05:10.496Z,-1.20
2019-01-10T01:07:38.908Z,-1.20
2019-01-10T01:10:10.399Z,-1.20
2019-01-10T01:12:38.816Z,-1.20
2019-01-10T01:15:10.378Z,-1.20
2019-01-10T01:17:38.789Z,-1.20
2019-01-10T01:20:09.332Z,-1.30
2019-01-10T01:22:37.737Z,-1.20
2019-01-10T01:25:08.560Z,-1.20
2019-01-10T01:27:36.975Z,-1.30
2019-01-10T01:30:11.756Z,-1.20
2019-01-10T01:32:40.169Z,-1.20
2019-01-10T01:35:09.011Z,-1.20
2019-01-10T01:37:37.488Z,-1.20
2019-01-10T01:40:09.197Z,-1.20
2019-01-10T01:42:37.621Z,-1.20
2019-01-10T01:45:08.256Z,-1.20
2019-01-10T01:47:36.743Z,-1.20
2019-01-10T01:50:11.054Z,-1.20
2019-01-10T01:52:39.463Z,-1.20
2019-01-10T01:55:08.105Z,-1.20
2019-01-10T01:57:36.519Z,-1.20
2019-01-10T02:00:07.984Z,-1.20
2019-01-10T02:02:36.404Z,-1.20
2019-01-10T02:05:06.150Z,-1.20
2019-01-10T02:07:34.559Z,-1.20
2019-01-10T02:10:03.032Z,-1.20
2019-01-10T02:12:31.449Z,-1.30
2019-01-10T02:14:59.856Z,-1.20
2019-01-10T02:17:28.275Z,-1.20
2019-01-10T02:19:56.668Z,-1.30
2019-01-10T02:22:25.087Z,-1.20
2019-01-10T02:24:53.627Z,-1.30
2019-01-10T02:27:22.047Z,-1.20
2019-01-10T02:29:50.468Z,-1.20
2019-01-10T02:32:18.872Z,-1.20
2019-01-10T02:34:47.284Z,-1.30
2019-01-10T02:37:15.703Z,-1.30
2019-01-10T02:39:44.116Z,-1.30
2019-01-10T02:42:12.511Z,-1.20
2019-01-10T02:44:40.926Z,-1.20
2019-01-10T02:47:09.328Z,-1.20
2019-01-10T02:49:37.768Z,-1.20
2019-01-10T02:52:06.179Z,-1.20
2019-01-10T02:54:34.604Z,-1.20
2019-01-10T02:57:03.290Z,-1.20
2019-01-10T02:59:31.688Z,-1.20
2019-01-10T03:02:00.173Z,-1.20
2019-01-10T03:04:28.667Z,-1.10
2019-01-10T03:06:57.077Z,-1.10
2019-01-10T03:09:25.510Z,-1.10
2019-01-10T03:11:53.903Z,-1.10
2019-01-10T03:14:22.317Z,-1.10
2019-01-10T03:16:50.787Z,-1.10
2019-01-10T03:19:19.196Z,-1.10
2019-01-10T03:21:47.600Z,-1.20
2019-01-10T03:24:16.015Z,-1.20
2019-01-10T03:26:44.413Z,-1.20
2019-01-10T03:29:12.827Z,-1.20
2019-01-10T03:31:41.292Z,-1.20
2019-01-10T03:34:09.705Z,-1.20
2019-01-10T03:36:38.181Z,-1.20
2019-01-10T03:39:08.340Z,-1.10
2019-01-10T03:41:36.908Z,-1.10
2019-01-10T03:44:05.473Z,-1.10
2019-01-10T03:46:33.884Z,-1.10
2019-01-10T03:49:02.333Z,-1.10
2019-01-10T03:51:30.814Z,-1.10
2019-01-10T03:53:59.220Z,-1.10
2019-01-10T03:56:27.638Z,-1.00
2019-01-10T03:58:56.114Z,-1.10
2019-01-10T04:01:24.533Z,-1.10
2019-01-10T04:03:52.936Z,-1.20
2019-01-10T04:06:21.372Z,-1.10
2019-01-10T04:08:49.788Z,-1.10
2019-01-10T04:11:18.203Z,-1.10
2019-01-10T04:13:57.033Z,-1.10
2019-01-10T04:16:16.736Z,-1.10
2019-01-10T04:18:45.147Z,-1.10
2019-01-10T04:21:17.498Z,-1.10
2019-01-10T04:23:43.687Z,-1.10
2019-01-10T04:26:12.099Z,-1.10
2019-01-10T04:28:40.508Z,-1.10
2019-01-10T04:31:08.919Z,-1.10
2019-01-10T04:33:37.328Z,-1.10
2019-01-10T04:36:05.760Z,-1.10
2019-01-10T04:38:34.172Z,-1.00
2019-01-10T04:41:02.575Z,-1.10
2019-01-10T04:43:30.988Z,-1.00
2019-01-10T04:45:59.395Z,-1.00
2019-01-10T04:48:27.814Z,-1.00
2019-01-10T04:50:56.227Z,-1.00
2019-01-10T04:53:26.693Z,-1.00
2019-01-10T04:55:54.783Z,-1.00
2019-01-10T04:58:23.204Z,-1.00
2019-01-10T05:00:51.610Z,-1.00
2019-01-10T05:03:20.019Z,-1.00
2019-01-10T05:05:48.432Z,-0.90
2019-01-10T05:08:16.844Z,-0.90
2019-01-10T05:10:45.252Z,-1.00
2019-01-10T05:13:13.677Z,-0.90
2019-01-10T05:15:42.084Z,-0.90
2019-01-10T05:18:10.513Z,-0.90
2019-01-10T05:20:38.921Z,-0.90
2019-01-10T05:23:07.345Z,-0.90
2019-01-10T05:25:35.755Z,-0.90
2019-01-10T05:28:04.242Z,-0.90
2019-01-10T05:30:32.653Z,-0.90
2019-01-10T05:33:01.073Z,-0.90
2019-01-10T05:35:29.475Z,-0.90
2019-01-10T05:37:57.900Z,-0.80
2019-01-10T05:40:26.300Z,-0.80
2019-01-10T05:42:54.721Z,-0.80
2019-01-10T05:45:23.124Z,-0.80
2019-01-10T05:47:51.544Z,-0.80
2019-01-10T05:50:19.970Z,-0.70
2019-01-10T05:52:48.384Z,-0.80
2019-01-10T05:55:18.339Z,-0.80
2019-01-10T05:57:46.763Z,-0.70
2019-01-10T06:00:23.715Z,-0.80
2019-01-10T06:02:52.122Z,-0.80
2019-01-10T06:05:20.680Z,-0.80
2019-01-10T06:07:49.083Z,-0.80
2019-01-10T06:10:22.531Z,-0.70
2019-01-10T06:12:50.996Z,-0.80
2019-01-10T06:15:19.416Z,-0.80
2019-01-10T06:17:47.828Z,-0.80
2019-01-10T06:20:19.325Z,-0.70
2019-01-10T06:22:47.804Z,-0.70
2019-01-10T06:25:16.378Z,-0.70
2019-01-10T06:27:44.920Z,-0.70
2019-01-10T06:30:16.084Z,-0.70
2019-01-10T06:32:44.501Z,-0.70
2019-01-10T06:35:13.053Z,-0.70
2019-01-10T06:37:41.475Z,-0.70
2019-01-10T06:40:12.559Z,-0.70
2019-01-10T06:42:41.118Z,-0.70
2019-01-10T06:45:11.748Z,-0.80
2019-01-10T06:47:40.177Z,-0.80
2019-01-10T06:50:11.061Z,-0.80
2019-01-10T06:52:39.475Z,-0.80
2019-01-10T06:55:09.923Z,-0.80
2019-01-10T06:57:38.359Z,-0.80
2019-01-10T07:00:18.461Z,-0.70
2019-01-10T07:02:46.940Z,-0.70
2019-01-10T07:05:15.352Z,-0.70
2019-01-10T07:07:43.762Z,-0.70
2019-01-10T07:10:15.384Z,-0.70
2019-01-10T07:12:43.800Z,-0.70
2019-01-10T07:15:12.275Z,-0.60
2019-01-10T07:17:40.692Z,-0.70
2019-01-10T07:20:10.644Z,-0.60
2019-01-10T07:22:50.576Z,-0.60
2019-01-10T07:25:19.117Z,-0.50
2019-01-10T07:27:47.575Z,-0.60
2019-01-10T07:30:19.099Z,-0.60
2019-01-10T07:32:47.512Z,-0.60
2019-01-10T07:35:15.931Z,-0.60
2019-01-10T07:37:47.714Z,-0.60
2019-01-10T07:40:16.457Z,-0.60
2019-01-10T07:42:45.466Z,-0.60
2019-01-10T07:45:16.653Z,-0.60
2019-01-10T07:47:48.139Z,-0.50
2019-01-10T07:50:17.984Z,-0.50
2019-01-10T07:52:47.739Z,-0.50
2019-01-10T07:55:16.216Z,-0.50
2019-01-10T07:57:44.636Z,-0.50
2019-01-10T08:00:16.366Z,-0.50
2019-01-10T08:02:45.119Z,-0.50
2019-01-10T08:05:13.766Z,-0.50
2019-01-10T08:07:42.189Z,-0.50
2019-01-10T08:10:15.724Z,-0.50
2019-01-10T08:12:44.199Z,-0.50
2019-01-10T08:15:15.957Z,-0.40
2019-01-10T08:17:44.444Z,-0.40
2019-01-10T08:20:13.793Z,-0.40
2019-01-10T08:22:42.284Z,-0.40
2019-01-10T08:25:10.763Z,-0.40
2019-01-10T08:27:39.236Z,-0.50
2019-01-10T08:30:16.017Z,-0.50
2019-01-10T08:32:44.488Z,-0.50
2019-01-10T08:35:14.543Z,-0.50
2019-01-10T08:37:43.020Z,-0.50
2019-01-10T08:40:11.602Z,-0.50
2019-01-10T08:42:40.016Z,-0.50
2019-01-10T08:45:10.172Z,-0.40
2019-01-10T08:47:38.648Z,-0.40
2019-01-10T08:50:13.148Z,-0.40
2019-01-10T08:52:41.552Z,-0.40
2019-01-10T08:55:10.108Z,-0.30
2019-01-10T08:57:38.527Z,-0.20
2019-01-10T09:00:15.747Z,-0.20
2019-01-10T09:02:44.232Z,-0.30
2019-01-10T09:05:12.768Z,-0.20
2019-01-10T09:07:41.215Z,-0.10
2019-01-10T09:10:15.487Z,-0.10
2019-01-10T09:12:44.044Z,-0.10
2019-01-10T09:15:12.593Z,-0.20
2019-01-10T09:17:41.014Z,-0.20
2019-01-10T09:20:12.595Z,-0.10
2019-01-10T09:22:40.991Z,-0.10
2019-01-10T09:25:09.640Z,-0.10
2019-01-10T09:27:38.039Z,0.00
2019-01-10T09:30:17.741Z,-0.10
2019-01-10T09:32:46.210Z,0.00
2019-01-10T09:35:14.757Z,0.00
2019-01-10T09:37:43.429Z,0.00
2019-01-10T09:40:17.712Z,0.00
2019-01-10T09:42:46.835Z,0.00
2019-01-10T09:45:20.527Z,0.00
2019-01-10T09:47:49.007Z,0.00
2019-01-10T09:50:19.348Z,0.00
2019-01-10T09:52:47.892Z,0.10
2019-01-10T09:55:16.438Z,0.10
2019-01-10T09:57:44.852Z,0.00
2019-01-10T10:00:16.375Z,0.00
2019-01-10T10:02:44.767Z,0.10
2019-01-10T10:05:13.182Z,0.10
2019-01-10T10:07:41.824Z,0.10
2019-01-10T10:10:13.243Z,0.10
2019-01-10T10:12:41.656Z,0.10
2019-01-10T10:15:10.904Z,0.10
2019-01-10T10:17:39.311Z,0.20
2019-01-10T10:20:14.808Z,0.20
2019-01-10T10:22:43.352Z,0.20
2019-01-10T10:25:11.747Z,0.20
2019-01-10T10:27:40.159Z,0.30
2019-01-10T10:30:16.925Z,0.30
2019-01-10T10:32:45.400Z,0.10
2019-01-10T10:35:14.352Z,0.20
2019-01-10T10:37:42.894Z,0.20
2019-01-10T10:40:16.340Z,0.30
2019-01-10T10:42:44.857Z,0.30
2019-01-10T10:45:15.745Z,0.30
2019-01-10T10:47:44.163Z,0.20
2019-01-10T10:50:15.364Z,0.40
2019-01-10T10:52:43.912Z,0.50
2019-01-10T10:55:12.444Z,0.50
2019-01-10T10:57:40.997Z,0.50
2019-01-10T11:00:12.872Z,0.50
2019-01-10T11:02:41.355Z,0.40
2019-01-10T11:05:09.887Z,0.40
2019-01-10T11:07:38.297Z,0.40
2019-01-10T11:10:09.780Z,0.30
2019-01-10T11:12:38.181Z,0.50
2019-01-10T11:15:09.224Z,0.60
2019-01-10T11:17:37.859Z,0.60
2019-01-10T11:20:14.862Z,0.60
2019-01-10T11:22:43.467Z,0.60
2019-01-10T11:25:17.179Z,0.60
2019-01-10T11:27:45.643Z,0.40
2019-01-10T11:30:18.659Z,0.50
2019-01-10T11:32:47.137Z,0.50
2019-01-10T11:35:15.680Z,0.50
2019-01-10T11:37:44.233Z,0.60
2019-01-10T11:40:17.624Z,0.80
2019-01-10T11:42:47.811Z,0.80
2019-01-10T11:45:18.460Z,0.90
2019-01-10T11:47:46.867Z,0.90
2019-01-10T11:50:16.494Z,0.90
2019-01-10T11:52:44.976Z,0.80
2019-01-10T11:55:13.728Z,0.80
2019-01-10T11:57:42.263Z,0.80
2019-01-10T12:00:16.792Z,0.90
2019-01-10T12:02:45.341Z,1.00
2019-01-10T12:05:13.886Z,1.10
2019-01-10T12:07:42.279Z,1.10
2019-01-10T12:10:11.736Z,1.10
2019-01-10T12:12:40.143Z,1.10
2019-01-10T12:15:10.677Z,1.00
2019-01-10T12:17:39.090Z,1.10
2019-01-10T12:20:13.136Z,1.00
2019-01-10T12:22:41.563Z,0.90
2019-01-10T12:25:11.997Z,0.70
2019-01-10T12:27:40.407Z,0.60
2019-01-10T12:30:15.064Z,0.60
2019-01-10T12:32:43.481Z,0.50
2019-01-10T12:35:11.963Z,0.70
2019-01-10T12:37:40.367Z,0.80
2019-01-10T12:40:11.485Z,0.80
2019-01-10T12:42:40.021Z,0.80
2019-01-10T12:45:11.369Z,0.80
2019-01-10T12:47:39.776Z,0.70
2019-01-10T12:50:16.799Z,0.60
2019-01-10T12:52:45.279Z,0.80
2019-01-10T12:55:13.739Z,0.60
2019-01-10T12:57:42.147Z,0.60
2019-01-10T13:00:15.859Z,0.60
2019-01-10T13:02:44.348Z,0.60
2019-01-10T13:05:13.296Z,0.50
2019-01-10T13:07:41.852Z,0.50
2019-01-10T13:10:13.199Z,0.50
2019-01-10T13:12:41.674Z,0.50
2019-01-10T13:15:12.707Z,0.50
2019-01-10T13:17:41.112Z,0.40
2019-01-10T13:20:11.460Z,0.50
2019-01-10T13:22:39.931Z,0.40
2019-01-10T13:25:11.373Z,0.40
2019-01-10T13:27:39.785Z,0.30
2019-01-10T13:30:11.588Z,0.40
2019-01-10T13:32:39.997Z,0.40
2019-01-10T13:35:09.243Z,0.40
2019-01-10T13:37:37.636Z,0.40
2019-01-10T13:40:08.488Z,0.40
2019-01-10T13:42:36.893Z,0.40
2019-01-10T13:45:07.609Z,0.40
2019-01-10T13:47:36.089Z,0.40
2019-01-10T13:50:11.377Z,0.40
2019-01-10T13:52:37.828Z,0.40
2019-01-10T13:55:09.013Z,0.30
2019-01-10T13:57:37.455Z,0.40
2019-01-10T14:00:09.496Z,0.40
2019-01-10T14:02:37.907Z,0.40
2019-01-10T14:05:10.559Z,0.40
2019-01-10T14:07:36.672Z,0.50
2019-01-10T14:10:08.435Z,0.50
2019-01-10T14:12:37.832Z,0.30
2019-01-10T14:15:09.644Z,0.20
2019-01-10T14:17:38.059Z,0.20
2019-01-10T14:20:08.897Z,0.10
2019-01-10T14:22:37.449Z,0.20
2019-01-10T14:25:06.987Z,0.20
2019-01-10T14:27:35.527Z,0.20
2019-01-10T14:30:12.859Z,0.20
2019-01-10T14:32:41.268Z,0.10
2019-01-10T14:35:09.792Z,0.00
2019-01-10T14:37:38.230Z,0.00
2019-01-10T14:40:08.575Z,-0.10
2019-01-10T14:42:37.048Z,-0.10
2019-01-10T14:45:08.863Z,-0.10
2019-01-10T14:47:37.332Z,-0.10
2019-01-10T14:50:08.283Z,-0.10
2019-01-10T14:52:36.841Z,-0.10
2019-01-10T14:55:10.700Z,-0.20
2019-01-10T14:57:39.340Z,-0.20
2019-01-10T15:00:10.828Z,-0.20
2019-01-10T15:02:39.248Z,-0.20
2019-01-10T15:05:07.797Z,-0.20
2019-01-10T15:07:36.206Z,-0.30
2019-01-10T15:10:05.945Z,-0.20
2019-01-10T15:12:34.360Z,-0.30
2019-01-10T15:15:02.768Z,-0.30
2019-01-10T15:17:31.180Z,-0.40
2019-01-10T15:19:59.604Z,-0.40
2019-01-10T15:22:28.016Z,-0.40
2019-01-10T15:24:56.425Z,-0.50
2019-01-10T15:27:24.822Z,-0.50
2019-01-10T15:29:53.247Z,-0.40
2019-01-10T15:32:21.654Z,-0.50
2019-01-10T15:34:50.069Z,-0.50
2019-01-10T15:37:18.488Z,-0.50
2019-01-10T15:39:46.897Z,-0.60
2019-01-10T15:42:15.384Z,-0.60
2019-01-10T15:44:43.798Z,-0.70
2019-01-10T15:47:12.200Z,-0.70
2019-01-10T15:49:40.682Z,-0.70
2019-01-10T15:52:09.103Z,-0.80
2019-01-10T15:54:37.520Z,-0.70
2019-01-10T15:57:05.927Z,-0.80
2019-01-10T15:59:34.344Z,-0.70
2019-01-10T16:02:02.821Z,-0.70
2019-01-10T16:04:31.228Z,-0.70
2019-01-10T16:06:59.635Z,-0.70
2019-01-10T16:09:28.048Z,-0.60
2019-01-10T16:11:56.460Z,-0.60
2019-01-10T16:14:24.881Z,-0.60
2019-01-10T16:16:53.281Z,-0.70
2019-01-10T16:19:21.699Z,-0.70
2019-01-10T16:21:50.115Z,-0.80
2019-01-10T16:24:18.516Z,-0.80
2019-01-10T16:26:46.936Z,-0.80
2019-01-10T16:29:15.344Z,-0.80
2019-01-10T16:31:43.764Z,-0.80
2019-01-10T16:34:12.176Z,-0.80
2019-01-10T16:36:40.623Z,-0.80
2019-01-10T16:39:09.215Z,-0.80
2019-01-10T16:41:37.628Z,-0.80
2019-01-10T16:44:06.111Z,-0.80
2019-01-10T16:46:37.180Z,-0.90
2019-01-10T16:49:05.643Z,-0.80
2019-01-10T16:51:34.129Z,-0.80
2019-01-10T16:54:02.540Z,-0.80
2019-01-10T16:56:30.952Z,-0.80
2019-01-10T16:58:59.356Z,-0.80
2019-01-10T17:01:27.772Z,-0.80
2019-01-10T17:03:56.191Z,-0.70
2019-01-10T17:06:24.663Z,-0.70
2019-01-10T17:08:53.074Z,-0.70
2019-01-10T17:11:21.474Z,-0.80
2019-01-10T17:13:49.885Z,-0.80
2019-01-10T17:16:18.321Z,-0.90
2019-01-10T17:18:46.720Z,-0.80
2019-01-10T17:21:15.216Z,-0.90
2019-01-10T17:23:43.627Z,-0.90
2019-01-10T17:26:12.044Z,-0.90
2019-01-10T17:28:40.451Z,-0.90
2019-01-10T17:31:08.864Z,-0.80
2019-01-10T17:33:37.268Z,-0.90
2019-01-10T17:36:05.683Z,-0.90
2019-01-10T17:38:34.099Z,-0.90
2019-01-10T17:41:02.515Z,-0.80
2019-01-10T17:43:30.947Z,-0.90
2019-01-10T17:45:59.520Z,-0.90
2019-01-10T17:48:27.942Z,-0.90
2019-01-10T17:50:56.517Z,-0.90
2019-01-10T17:53:26.124Z,-0.90
2019-01-10T17:55:54.617Z,-0.90
2019-01-10T17:58:23.016Z,-1.00
2019-01-10T18:00:51.435Z,-0.90
2019-01-10T18:03:19.840Z,-0.90
2019-01-10T18:05:48.255Z,-0.90
2019-01-10T18:08:16.671Z,-1.00
2019-01-10T18:10:45.096Z,-1.00
2019-01-10T18:13:13.509Z,-1.00
2019-01-10T18:15:41.967Z,-0.90
2019-01-10T18:18:10.425Z,-0.90
2019-01-10T18:20:38.972Z,-1.00
2019-01-10T18:23:07.723Z,-1.00
2019-01-10T18:25:36.145Z,-1.00
2019-01-10T18:28:04.916Z,-1.00
2019-01-10T18:30:33.337Z,-1.10
2019-01-10T18:33:01.753Z,-1.10
2019-01-10T18:35:30.422Z,-1.10
2019-01-10T18:37:58.833Z,-1.20
2019-01-10T18:40:27.307Z,-1.20
2019-01-10T18:42:55.804Z,-1.30
2019-01-10T18:45:29.295Z,-1.30
2019-01-10T18:47:57.709Z,-1.40
2019-01-10T18:50:26.464Z,-1.40
2019-01-10T18:52:54.947Z,-1.50
2019-01-10T18:55:23.343Z,-1.50
2019-01-10T18:57:51.768Z,-1.50
2019-01-10T19:00:22.888Z,-1.60
2019-01-10T19:02:51.440Z,-1.60
2019-01-10T19:05:19.912Z,-1.50
2019-01-10T19:07:48.398Z,-1.50
2019-01-10T19:10:21.234Z,-1.50
2019-01-10T19:12:49.649Z,-1.50
2019-01-10T19:15:18.127Z,-1.40
2019-01-10T19:17:46.577Z,-1.50
2019-01-10T19:20:20.298Z,-1.50
2019-01-10T19:22:48.712Z,-1.50
2019-01-10T19:25:17.120Z,-1.50
2019-01-10T19:27:45.603Z,-1.50
2019-01-10T19:30:16.662Z,-1.50
2019-01-10T19:32:45.209Z,-1.50
2019-01-10T19:35:13.700Z,-1.50
2019-01-10T19:37:42.121Z,-1.50
2019-01-10T19:40:13.548Z,-1.50
2019-01-10T19:42:41.966Z,-1.50
2019-01-10T19:45:13.138Z,-1.60
2019-01-10T19:47:41.532Z,-1.60
2019-01-10T19:50:16.029Z,-1.50
2019-01-10T19:52:44.522Z,-1.50
2019-01-10T19:55:14.670Z,-1.40
2019-01-10T19:57:43.148Z,-1.50
2019-01-10T20:00:20.564Z,-1.40
2019-01-10T20:02:49.056Z,-1.40
2019-01-10T20:05:17.543Z,-1.40
2019-01-10T20:07:46.116Z,-1.50
2019-01-10T20:10:15.671Z,-1.50
2019-01-10T20:12:44.216Z,-1.60
2019-01-10T20:15:12.769Z,-1.40
2019-01-10T20:17:41.244Z,-1.40
2019-01-10T20:20:21.705Z,-1.40
2019-01-10T20:22:50.111Z,-1.30
2019-01-10T20:25:18.596Z,-1.40
2019-01-10T20:27:47.184Z,-1.40
2019-01-10T20:30:17.523Z,-1.40
2019-01-10T20:32:46.014Z,-1.30
2019-01-10T20:35:15.180Z,-1.40
2019-01-10T20:37:43.660Z,-1.40
2019-01-10T20:40:14.304Z,-1.30
2019-01-10T20:42:42.735Z,-1.20
2019-01-10T20:45:11.825Z,-1.20
2019-01-10T20:47:40.227Z,-1.30
2019-01-10T20:50:11.749Z,-1.30
2019-01-10T20:52:40.162Z,-1.30
2019-01-10T20:55:11.683Z,-1.30
2019-01-10T20:57:40.157Z,-1.30
2019-01-10T21:00:14.675Z,-1.40
2019-01-10T21:02:43.072Z,-1.50
2019-01-10T21:05:12.041Z,-1.50
2019-01-10T21:07:40.500Z,-1.60
2019-01-10T21:10:12.316Z,-1.60
2019-01-10T21:12:40.797Z,-1.60
2019-01-10T21:15:14.985Z,-1.60
2019-01-10T21:17:43.511Z,-1.50
2019-01-10T21:20:12.364Z,-1.60
2019-01-10T21:22:40.774Z,-1.60
2019-01-10T21:25:11.528Z,-1.60
2019-01-10T21:27:40.274Z,-1.60
2019-01-10T21:30:11.811Z,-1.60
2019-01-10T21:32:40.946Z,-1.60
2019-01-10T21:35:09.648Z,-1.70
2019-01-10T21:37:38.056Z,-1.70
2019-01-10T21:40:12.452Z,-1.80
2019-01-10T21:42:40.929Z,-1.70
2019-01-10T21:45:12.367Z,-1.80
2019-01-10T21:47:40.858Z,-1.80
2019-01-10T21:50:12.409Z,-1.80
2019-01-10T21:52:40.811Z,-1.80
2019-01-10T21:55:10.672Z,-1.80
2019-01-10T21:57:39.160Z,-1.80
2019-01-10T22:00:22.578Z,-1.70
2019-01-10T22:02:51.232Z,-1.60
2019-01-10T22:05:19.848Z,-1.60
2019-01-10T22:07:48.891Z,-1.70
2019-01-10T22:10:17.888Z,-1.70
2019-01-10T22:12:46.921Z,-1.80
2019-01-10T22:15:17.402Z,-1.70
2019-01-10T22:17:46.945Z,-1.70
2019-01-10T22:20:18.813Z,-1.70
2019-01-10T22:22:47.905Z,-1.70
2019-01-10T22:25:16.838Z,-1.70
2019-01-10T22:27:45.920Z,-1.60
2019-01-10T22:30:23.984Z,-1.60
2019-01-10T22:33:00.559Z,-1.70
2019-01-10T22:35:29.800Z,-1.80
2019-01-10T22:37:58.895Z,-1.80
2019-01-10T22:40:27.821Z,-1.90
2019-01-10T22:42:56.811Z,-1.80
2019-01-10T22:45:25.738Z,-1.90
2019-01-10T22:47:54.419Z,-1.90
2019-01-10T22:50:23.748Z,-2.00
2019-01-10T22:52:53.446Z,-2.00
2019-01-10T22:55:22.521Z,-2.00
2019-01-10T22:57:51.453Z,-1.90
2019-01-10T23:00:34.067Z,-1.90
2019-01-10T23:03:07.946Z,-1.90
2019-01-10T23:05:41.475Z,-1.90
2019-01-10T23:08:10.467Z,-2.00
2019-01-10T23:10:39.396Z,-1.90
2019-01-10T23:13:08.594Z,-1.90
2019-01-10T23:15:37.522Z,-1.80
2019-01-10T23:18:07.619Z,-1.80
2019-01-10T23:20:36.901Z,-1.90
2019-01-10T23:23:13.611Z,-2.00
2019-01-10T23:25:42.600Z,-2.10
2019-01-10T23:28:11.527Z,-2.20
2019-01-10T23:30:48.849Z,-2.20
2019-01-10T23:33:19.082Z,-2.20
2019-01-10T23:35:49.461Z,-2.10
2019-01-10T23:38:21.329Z,-2.20
2019-01-10T23:40:50.358Z,-2.20
2019-01-10T23:43:19.331Z,-2.30
2019-01-10T23:45:48.519Z,-2.40
2019-01-10T23:48:17.652Z,-2.40
2019-01-10T23:50:46.636Z,-2.40
2019-01-10T23:53:15.737Z,-2.30
2019-01-10T23:55:44.249Z,-2.30
2019-01-10T23:58:12.728Z,-2.30
